Time;durP1;ratioP1;P1;durP2;ratioP2;P2;SDS_P1;SDS_P2;PMS_P1;PMS_P2;Temp;Humidity;BMP_temperature;BMP_pressure;BME280_temperature;BME280_humidity;BME280_pressure;Samples;Min_cycle;Max_cycle;Signal;HPM_P1;HPM_P2
2023/12/26 00:02:15;;;;;;;0.20;0.20;;;;;;;8.74;100.00;98702.31;5096968;28;20131;-60
2023/12/26 00:04:42;;;;;;;0.20;0.20;;;;;;;8.71;100.00;98692.09;5095947;28;20077;-60
2023/12/26 00:07:09;;;;;;;0.20;0.20;;;;;;;8.82;100.00;98701.91;5097602;28;20036;-58
2023/12/26 00:09:39;;;;;;;0.20;0.20;;;;;;;8.82;100.00;98697.38;5090556;28;20040;-58
2023/12/26 00:12:10;;;;;;;0.30;0.30;;;;;;;8.72;100.00;98686.53;5089697;28;20039;-58
2023/12/26 00:14:38;;;;;;;0.20;0.20;;;;;;;8.68;100.00;98680.03;5096206;28;20580;-58
2023/12/26 00:17:06;;;;;;;0.30;0.30;;;;;;;8.70;100.00;98683.28;5090454;28;20047;-58
2023/12/26 00:19:33;;;;;;;0.20;0.20;;;;;;;8.73;100.00;98677.44;5096577;28;20062;-60
2023/12/26 00:22:01;;;;;;;0.20;0.20;;;;;;;8.70;100.00;98675.25;5093916;28;20042;-59
2023/12/26 00:24:28;;;;;;;0.20;0.20;;;;;;;8.56;100.00;98679.31;5094457;28;21151;-59
2023/12/26 00:26:55;;;;;;;0.30;0.30;;;;;;;8.63;100.00;98682.63;5077384;28;20047;-60
2023/12/26 00:29:24;;;;;;;0.25;0.25;;;;;;;8.61;100.00;98682.06;5093702;28;20052;-60
2023/12/26 00:31:51;;;;;;;0.30;0.30;;;;;;;8.60;100.00;98683.13;5094118;28;20039;-58
2023/12/26 00:34:18;;;;;;;0.30;0.30;;;;;;;8.61;100.00;98684.72;5096896;28;20079;-60
2023/12/26 00:36:45;;;;;;;0.30;0.30;;;;;;;8.64;100.00;98684.25;5093964;28;20050;-60
2023/12/26 00:39:14;;;;;;;0.20;0.20;;;;;;;8.65;100.00;98691.22;5093385;28;20067;-59
2023/12/26 00:41:41;;;;;;;0.30;0.30;;;;;;;8.66;100.00;98698.16;5093416;28;20906;-59
2023/12/26 00:44:08;;;;;;;0.30;0.30;;;;;;;8.69;100.00;98695.03;5098139;28;20656;-58
2023/12/26 00:46:36;;;;;;;0.20;0.20;;;;;;;8.76;100.00;98693.00;5090188;28;20044;-60
2023/12/26 00:49:03;;;;;;;0.20;0.20;;;;;;;8.66;100.00;98698.16;5094518;28;20047;-59
2023/12/26 00:51:31;;;;;;;0.20;0.20;;;;;;;8.81;100.00;98682.41;5093681;28;20146;-59
2023/12/26 00:53:58;;;;;;;0.20;0.20;;;;;;;8.88;100.00;98692.09;5097932;28;20117;-60
2023/12/26 00:56:25;;;;;;;0.38;0.38;;;;;;;8.73;100.00;98681.97;5092674;28;20173;-60
2023/12/26 00:58:53;;;;;;;0.25;0.25;;;;;;;8.88;100.00;98682.22;5092569;28;20122;-60
2023/12/26 01:01:20;;;;;;;0.30;0.30;;;;;;;8.85;100.00;98685.38;5089956;28;20051;-59
2023/12/26 01:03:49;;;;;;;0.30;0.30;;;;;;;8.81;100.00;98689.59;5094434;28;20040;-59
2023/12/26 01:06:16;;;;;;;0.20;0.20;;;;;;;8.75;100.00;98696.72;5080167;28;20119;-59
2023/12/26 01:08:43;;;;;;;0.30;0.30;;;;;;;8.76;100.00;98698.34;5091831;28;20464;-59
2023/12/26 01:11:11;;;;;;;0.30;0.30;;;;;;;8.76;100.00;98708.22;5073723;28;20044;-59
2023/12/26 01:13:39;;;;;;;0.28;0.28;;;;;;;8.68;100.00;98711.28;5072723;28;20489;-59
2023/12/26 01:16:07;;;;;;;0.25;0.25;;;;;;;8.66;100.00;98718.72;5089527;28;20803;-59
2023/12/26 01:18:34;;;;;;;0.30;0.30;;;;;;;8.61;100.00;98714.13;5096510;28;20047;-59
2023/12/26 01:21:03;;;;;;;0.30;0.30;;;;;;;8.59;100.00;98710.91;5095670;28;20501;-59
2023/12/26 01:23:30;;;;;;;0.30;0.30;;;;;;;8.50;100.00;98723.03;5068931;28;20174;-59
2023/12/26 01:26:00;;;;;;;0.20;0.20;;;;;;;8.56;100.00;98732.72;5075335;28;20604;-59
2023/12/26 01:28:27;;;;;;;0.30;0.30;;;;;;;8.57;100.00;98742.38;5072299;28;20062;-59
2023/12/26 01:30:54;;;;;;;0.30;0.30;;;;;;;8.52;100.00;98734.28;5094807;28;20044;-60
2023/12/26 01:33:21;;;;;;;0.20;0.20;;;;;;;8.47;100.00;98731.53;5078108;28;20731;-59
2023/12/26 01:35:48;;;;;;;0.30;0.30;;;;;;;8.50;100.00;98731.03;5088895;28;20052;-59
2023/12/26 01:38:18;;;;;;;0.30;0.30;;;;;;;8.52;100.00;98732.41;5078286;28;20779;-59
2023/12/26 01:40:45;;;;;;;0.15;0.15;;;;;;;8.52;100.00;98731.59;5095947;28;20040;-59
2023/12/26 01:43:13;;;;;;;0.20;0.20;;;;;;;8.57;100.00;98727.16;5085021;28;20445;-58
2023/12/26 01:45:40;;;;;;;0.20;0.20;;;;;;;8.69;100.00;98731.63;5094860;28;20169;-59
2023/12/26 01:48:07;;;;;;;0.30;0.30;;;;;;;8.68;100.00;98728.13;5066617;28;20055;-58
2023/12/26 01:50:34;;;;;;;0.20;0.20;;;;;;;8.77;100.00;98717.88;5071835;28;20065;-59
2023/12/26 01:53:01;;;;;;;0.30;0.30;;;;;;;8.76;100.00;98725.06;5094573;28;20040;-60
2023/12/26 01:55:30;;;;;;;0.28;0.28;;;;;;;8.86;100.00;98708.38;5091504;28;20100;-60
2023/12/26 01:57:57;;;;;;;0.30;0.30;;;;;;;8.92;100.00;98710.06;5074233;28;20540;-59
2023/12/26 02:00:24;;;;;;;0.30;0.30;;;;;;;8.81;100.00;98716.31;5091972;28;20039;-60
2023/12/26 02:02:51;;;;;;;0.30;0.30;;;;;;;8.87;100.00;98711.88;5092888;28;20099;-59
2023/12/26 02:05:18;;;;;;;0.25;0.25;;;;;;;8.63;100.00;98714.69;5095117;28;20043;-60
2023/12/26 02:07:46;;;;;;;0.30;0.30;;;;;;;8.65;100.00;98707.25;5071513;28;20043;-60
2023/12/26 02:10:13;;;;;;;0.30;0.30;;;;;;;8.46;100.00;98716.53;5076919;28;20052;-60
2023/12/26 02:12:43;;;;;;;0.40;0.40;;;;;;;8.43;100.00;98715.16;5077771;28;20056;-58
2023/12/26 02:15:10;;;;;;;0.30;0.30;;;;;;;8.47;100.00;98705.63;5067027;28;20059;-59
2023/12/26 02:17:37;;;;;;;0.20;0.20;;;;;;;8.39;100.00;98719.34;5092096;28;20490;-59
2023/12/26 02:20:05;;;;;;;0.20;0.20;;;;;;;8.43;100.00;98717.81;5067633;28;20040;-59
2023/12/26 02:22:32;;;;;;;0.40;0.40;;;;;;;8.36;100.00;98720.63;5096572;28;20055;-59
2023/12/26 02:25:01;;;;;;;0.20;0.20;;;;;;;8.33;100.00;98730.97;5093887;28;20120;-59
2023/12/26 02:27:30;;;;;;;0.30;0.30;;;;;;;8.34;100.00;98722.72;5093216;28;20441;-59
2023/12/26 02:29:57;;;;;;;0.22;0.22;;;;;;;8.32;100.00;98724.03;5095870;28;20077;-59
2023/12/26 02:32:25;;;;;;;0.28;0.28;;;;;;;8.27;100.00;98732.75;5068939;28;20113;-59
2023/12/26 02:34:55;;;;;;;0.30;0.30;;;;;;;8.19;100.00;98731.28;5088824;28;20375;-59
2023/12/26 02:37:22;;;;;;;0.30;0.30;;;;;;;8.28;100.00;98725.53;5093156;28;20122;-59
2023/12/26 02:39:50;;;;;;;0.30;0.30;;;;;;;8.23;100.00;98726.25;5100073;28;20162;-59
2023/12/26 02:42:20;;;;;;;0.20;0.20;;;;;;;8.27;100.00;98724.72;5089254;28;20056;-59
2023/12/26 02:44:47;;;;;;;0.28;0.28;;;;;;;8.29;100.00;98729.84;5093464;28;20237;-59
2023/12/26 02:47:14;;;;;;;0.20;0.20;;;;;;;8.25;100.00;98740.16;5072025;28;20104;-59
2023/12/26 02:49:41;;;;;;;0.30;0.30;;;;;;;8.19;100.00;98735.81;5099840;28;20054;-59
2023/12/26 02:52:08;;;;;;;0.20;0.20;;;;;;;8.18;100.00;98726.16;5080209;28;20038;-59
2023/12/26 02:54:36;;;;;;;0.30;0.30;;;;;;;8.10;100.00;98726.53;5090313;28;20096;-59
2023/12/26 02:57:03;;;;;;;0.20;0.20;;;;;;;8.19;100.00;98733.13;5082690;28;20461;-59
2023/12/26 02:59:32;;;;;;;0.30;0.30;;;;;;;8.11;100.00;98728.16;5079236;28;20404;-59
2023/12/26 03:01:58;;;;;;;0.20;0.20;;;;;;;8.23;100.00;98728.91;5099036;28;20118;-59
2023/12/26 03:04:27;;;;;;;0.30;0.30;;;;;;;8.07;100.00;98719.03;5088053;28;20166;-59
2023/12/26 03:06:54;;;;;;;0.30;0.30;;;;;;;8.10;100.00;98727.34;5091403;28;20119;-59
2023/12/26 03:09:22;;;;;;;0.30;0.30;;;;;;;8.05;100.00;98726.44;5093764;28;20105;-59
2023/12/26 03:11:49;;;;;;;0.30;0.30;;;;;;;7.99;100.00;98726.34;5093161;28;20125;-59
2023/12/26 03:14:16;;;;;;;0.40;0.40;;;;;;;8.08;100.00;98724.09;5095881;28;20140;-59
2023/12/26 03:16:45;;;;;;;0.20;0.20;;;;;;;8.12;100.00;98729.78;5095431;28;20498;-59
2023/12/26 03:19:11;;;;;;;0.30;0.30;;;;;;;8.00;100.00;98725.28;5097745;28;20508;-59
2023/12/26 03:21:38;;;;;;;0.22;0.22;;;;;;;7.97;100.00;98720.44;5098088;28;20068;-59
2023/12/26 03:24:06;;;;;;;0.25;0.25;;;;;;;8.00;100.00;98722.63;5089741;28;20058;-59
2023/12/26 03:26:33;;;;;;;0.30;0.30;;;;;;;7.99;100.00;98726.34;5095345;28;20067;-59
2023/12/26 03:29:00;;;;;;;0.30;0.30;;;;;;;8.07;100.00;98727.84;5089984;28;20067;-59
2023/12/26 03:31:28;;;;;;;0.32;0.32;;;;;;;7.98;100.00;98732.72;5098656;28;20232;-59
2023/12/26 03:33:56;;;;;;;0.30;0.30;;;;;;;8.05;100.00;98731.78;5074185;28;20048;-59
2023/12/26 03:36:23;;;;;;;0.20;0.20;;;;;;;7.98;100.00;98735.41;5090500;28;20084;-59
2023/12/26 03:38:50;;;;;;;0.30;0.30;;;;;;;8.01;100.00;98734.09;5090596;28;20047;-59
2023/12/26 03:41:17;;;;;;;0.20;0.20;;;;;;;7.95;100.00;98730.53;5094065;28;20067;-59
2023/12/26 03:43:45;;;;;;;0.30;0.30;;;;;;;7.96;100.00;98729.50;5082228;28;20387;-59
2023/12/26 03:46:12;;;;;;;0.28;0.28;;;;;;;8.00;100.00;98727.97;5079131;28;20050;-59
2023/12/26 03:48:39;;;;;;;0.40;0.40;;;;;;;7.98;100.00;98732.72;5067364;28;20173;-59
2023/12/26 03:51:08;;;;;;;0.20;0.20;;;;;;;7.93;100.00;98732.63;5098066;28;20051;-59
2023/12/26 03:53:35;;;;;;;0.30;0.30;;;;;;;7.95;100.00;98735.88;5075930;28;20044;-59
2023/12/26 03:56:02;;;;;;;0.25;0.25;;;;;;;7.91;100.00;98740.09;5081509;28;20067;-59
2023/12/26 03:58:29;;;;;;;0.30;0.30;;;;;;;8.00;100.00;98741.31;5076134;28;20413;-59
2023/12/26 04:00:56;;;;;;;0.30;0.30;;;;;;;7.90;100.00;98738.44;5088298;28;20302;-59
2023/12/26 04:03:24;;;;;;;0.30;0.30;;;;;;;7.99;100.00;98745.03;5090665;28;20427;-59
2023/12/26 04:05:51;;;;;;;0.30;0.30;;;;;;;7.95;100.00;98743.88;5091535;28;20126;-59
2023/12/26 04:08:19;;;;;;;0.30;0.30;;;;;;;7.86;100.00;98748.00;5087380;28;20237;-59
2023/12/26 04:10:46;;;;;;;0.22;0.22;;;;;;;7.86;100.00;98750.66;5093267;28;20116;-59
2023/12/26 04:13:14;;;;;;;0.30;0.30;;;;;;;7.94;100.00;98746.81;5078776;28;20170;-59
2023/12/26 04:15:41;;;;;;;0.20;0.20;;;;;;;7.92;100.00;98763.03;5097965;28;20758;-59
2023/12/26 04:18:08;;;;;;;0.30;0.30;;;;;;;7.87;100.00;98744.25;5075856;28;20073;-59
2023/12/26 04:20:35;;;;;;;0.40;0.40;;;;;;;7.92;100.00;98749.69;5079403;28;20051;-59
2023/12/26 04:23:03;;;;;;;0.30;0.30;;;;;;;8.04;100.00;98746.16;5095793;28;20075;-59
2023/12/26 04:25:32;;;;;;;0.20;0.20;;;;;;;8.02;100.00;98753.63;5070154;28;20125;-59
2023/12/26 04:28:00;;;;;;;0.30;0.30;;;;;;;8.04;100.00;98756.84;5087720;28;20040;-59
2023/12/26 04:30:27;;;;;;;0.30;0.30;;;;;;;8.05;100.00;98755.81;5074928;28;20506;-59
2023/12/26 04:32:55;;;;;;;0.30;0.30;;;;;;;8.04;100.00;98744.34;5094886;28;20152;-59
2023/12/26 04:35:22;;;;;;;0.30;0.30;;;;;;;8.11;100.00;98746.84;5091713;28;20051;-59
2023/12/26 04:37:49;;;;;;;0.30;0.30;;;;;;;8.07;100.00;98745.72;5070526;28;20046;-59
2023/12/26 04:40:19;;;;;;;0.30;0.30;;;;;;;8.05;100.00;98750.47;5094278;28;20070;-59
2023/12/26 04:42:47;;;;;;;0.30;0.30;;;;;;;8.07;100.00;98759.06;5062777;28;20047;-59
2023/12/26 04:45:14;;;;;;;0.30;0.30;;;;;;;8.11;100.00;98760.19;5093805;28;20135;-59
2023/12/26 04:47:41;;;;;;;0.30;0.30;;;;;;;8.10;100.00;98769.25;5089089;28;20044;-59
2023/12/26 04:50:09;;;;;;;0.30;0.30;;;;;;;8.05;100.00;98763.81;5086458;28;20117;-59
2023/12/26 04:52:36;;;;;;;0.30;0.30;;;;;;;8.16;100.00;98771.78;5070115;28;20054;-59
2023/12/26 04:55:03;;;;;;;0.30;0.30;;;;;;;8.13;100.00;98772.25;5095286;28;20039;-59
2023/12/26 04:57:30;;;;;;;0.30;0.30;;;;;;;8.12;100.00;98770.63;5059250;28;20036;-59
2023/12/26 04:59:59;;;;;;;0.35;0.35;;;;;;;8.14;100.00;98773.09;5079102;28;20089;-59
2023/12/26 05:02:27;;;;;;;0.40;0.40;;;;;;;8.13;100.00;98774.09;5068579;28;20039;-59
2023/12/26 05:04:54;;;;;;;0.30;0.30;;;;;;;8.13;100.00;98774.91;5094533;28;20673;-59
2023/12/26 05:07:21;;;;;;;0.20;0.20;;;;;;;8.14;100.00;98781.91;5091102;28;20046;-59
2023/12/26 05:09:48;;;;;;;0.30;0.30;;;;;;;8.09;100.00;98786.34;5071029;28;20291;-59
2023/12/26 05:12:15;;;;;;;0.28;0.28;;;;;;;8.19;100.00;98802.53;5050088;28;20045;-59
2023/12/26 05:14:42;;;;;;;0.30;0.30;;;;;;;8.20;100.00;98809.50;5058709;28;20049;-59
2023/12/26 05:17:11;;;;;;;0.30;0.30;;;;;;;8.21;100.00;98803.09;5067858;28;20059;-59
2023/12/26 05:19:40;;;;;;;0.30;0.30;;;;;;;8.20;100.00;98806.81;5048900;28;20136;-59
2023/12/26 05:22:07;;;;;;;0.30;0.30;;;;;;;8.17;100.00;98805.44;5046460;28;20052;-59
2023/12/26 05:24:35;;;;;;;0.22;0.22;;;;;;;8.17;100.00;98801.97;5060912;28;20567;-59
2023/12/26 05:27:02;;;;;;;0.20;0.20;;;;;;;8.22;100.00;98815.41;5055267;28;20044;-59
2023/12/26 05:29:29;;;;;;;0.20;0.20;;;;;;;8.24;100.00;98807.97;5057046;28;20063;-59
2023/12/26 05:31:56;;;;;;;0.30;0.30;;;;;;;8.20;100.00;98807.63;5065806;28;20130;-59
2023/12/26 05:34:24;;;;;;;0.30;0.30;;;;;;;8.25;100.00;98811.47;5050664;28;20055;-59
2023/12/26 05:36:52;;;;;;;0.30;0.30;;;;;;;8.20;100.00;98820.16;5066257;28;20040;-58
2023/12/26 05:39:20;;;;;;;0.30;0.30;;;;;;;8.22;100.00;98820.75;5067943;28;20048;-59
2023/12/26 05:41:47;;;;;;;0.30;0.30;;;;;;;8.24;100.00;98831.19;5060794;28;20094;-59
2023/12/26 05:44:14;;;;;;;0.30;0.30;;;;;;;8.23;100.00;98825.03;5068507;28;20526;-59
2023/12/26 05:46:42;;;;;;;0.20;0.20;;;;;;;8.25;100.00;98841.63;5042661;28;20059;-59
2023/12/26 05:49:09;;;;;;;0.30;0.30;;;;;;;8.27;100.00;98844.06;5045382;28;20046;-58
2023/12/26 05:51:38;;;;;;;0.30;0.30;;;;;;;8.23;100.00;98853.59;5049264;28;20067;-58
2023/12/26 05:54:05;;;;;;;0.30;0.30;;;;;;;8.25;100.00;98857.66;5054749;28;20123;-58
2023/12/26 05:56:32;;;;;;;0.32;0.32;;;;;;;8.25;100.00;98860.31;5052569;28;20053;-58
2023/12/26 05:58:59;;;;;;;0.30;0.30;;;;;;;8.35;100.00;98865.88;5050789;28;20052;-58
2023/12/26 06:01:26;;;;;;;0.20;0.20;;;;;;;8.26;100.00;98858.44;5052038;28;20037;-58
2023/12/26 06:03:53;;;;;;;0.30;0.30;;;;;;;8.32;100.00;98866.34;5048688;28;20144;-58
2023/12/26 06:06:21;;;;;;;0.25;0.25;;;;;;;8.34;100.00;98869.59;5053216;28;20045;-59
2023/12/26 06:08:49;;;;;;;0.30;0.30;;;;;;;8.33;100.00;98865.28;5049787;28;20325;-58
2023/12/26 06:11:17;;;;;;;0.30;0.30;;;;;;;8.31;100.00;98867.41;5064398;28;20158;-58
2023/12/26 06:13:45;;;;;;;0.30;0.30;;;;;;;8.34;100.00;98872.25;5073971;28;20736;-58
2023/12/26 06:16:12;;;;;;;0.25;0.25;;;;;;;8.38;100.00;98876.06;5067287;28;20044;-58
2023/12/26 06:18:40;;;;;;;0.30;0.30;;;;;;;8.52;100.00;98873.16;5067170;28;20056;-58
2023/12/26 06:21:07;;;;;;;0.30;0.30;;;;;;;8.39;100.00;98875.06;5075074;28;20066;-58
2023/12/26 06:23:34;;;;;;;0.20;0.20;;;;;;;8.39;100.00;98880.41;5066719;28;20225;-58
2023/12/26 06:26:02;;;;;;;0.30;0.30;;;;;;;8.39;100.00;98875.06;5068359;28;20760;-59
2023/12/26 06:28:29;;;;;;;0.20;0.20;;;;;;;8.37;100.00;98882.47;5073361;28;20071;-58
2023/12/26 06:30:56;;;;;;;0.40;0.40;;;;;;;8.41;100.00;98886.31;5067386;28;20145;-59
2023/12/26 06:33:23;;;;;;;0.30;0.30;;;;;;;8.43;100.00;98880.72;5066954;28;20051;-59
2023/12/26 06:35:50;;;;;;;0.28;0.28;;;;;;;8.41;100.00;98894.34;5071873;28;20406;-58
2023/12/26 06:38:18;;;;;;;0.22;0.22;;;;;;;8.42;100.00;98890.59;5074542;28;20155;-58
2023/12/26 06:40:45;;;;;;;0.22;0.22;;;;;;;8.40;100.00;98895.38;5068001;28;20037;-58
2023/12/26 06:43:15;;;;;;;0.30;0.30;;;;;;;8.38;100.00;98900.09;5075048;28;20067;-61
2023/12/26 06:45:42;;;;;;;0.30;0.30;;;;;;;8.41;100.00;98909.53;5070541;28;20314;-58
2023/12/26 06:48:09;;;;;;;0.30;0.30;;;;;;;8.37;100.00;98913.69;5067953;28;20301;-59
2023/12/26 06:50:37;;;;;;;0.30;0.30;;;;;;;8.38;100.00;98921.47;5072250;28;20059;-59
2023/12/26 06:53:04;;;;;;;0.30;0.30;;;;;;;8.40;100.00;98930.09;5072203;28;20501;-58
2023/12/26 06:55:32;;;;;;;0.20;0.20;;;;;;;8.47;100.00;98939.84;5064936;28;20044;-58
2023/12/26 06:57:59;;;;;;;0.20;0.20;;;;;;;8.41;100.00;98941.56;5063005;28;20079;-58
2023/12/26 07:00:27;;;;;;;0.30;0.30;;;;;;;8.39;100.00;98943.66;5063005;28;20556;-59
2023/12/26 07:02:55;;;;;;;0.30;0.30;;;;;;;8.40;100.00;98942.63;5070662;28;20059;-58
2023/12/26 07:05:23;;;;;;;0.30;0.30;;;;;;;8.40;100.00;98938.09;5054703;28;20133;-59
2023/12/26 07:07:50;;;;;;;0.30;0.30;;;;;;;8.37;100.00;98951.91;5088020;28;20036;-59
2023/12/26 07:10:17;;;;;;;0.30;0.30;;;;;;;8.42;100.00;98960.03;5084687;28;20051;-58
2023/12/26 07:12:45;;;;;;;0.30;0.30;;;;;;;8.47;100.00;98971.91;5092398;28;20036;-59
2023/12/26 07:15:12;;;;;;;0.20;0.20;;;;;;;8.40;100.00;98974.69;5093557;28;20039;-58
2023/12/26 07:17:41;;;;;;;0.28;0.28;;;;;;;8.41;100.00;98973.63;5070773;28;20138;-58
2023/12/26 07:20:08;;;;;;;0.30;0.30;;;;;;;8.50;100.00;98968.75;5092324;28;20394;-58
2023/12/26 07:22:36;;;;;;;0.20;0.20;;;;;;;8.43;100.00;98977.69;5094505;28;20047;-59
2023/12/26 07:25:03;;;;;;;0.30;0.30;;;;;;;8.48;100.00;98985.00;5092803;28;20050;-58
2023/12/26 07:27:30;;;;;;;0.30;0.30;;;;;;;8.50;100.00;98990.13;5086635;28;20068;-58
2023/12/26 07:29:57;;;;;;;0.30;0.30;;;;;;;8.60;100.00;98995.66;5095858;28;20778;-59
2023/12/26 07:32:24;;;;;;;0.20;0.20;;;;;;;8.42;100.00;98992.09;5092261;28;20112;-59
2023/12/26 07:34:52;;;;;;;0.30;0.30;;;;;;;8.40;100.00;99010.19;5093034;28;20060;-58
2023/12/26 07:37:19;;;;;;;0.30;0.30;;;;;;;8.39;100.00;99015.78;5096624;28;20531;-58
2023/12/26 07:39:46;;;;;;;0.35;0.35;;;;;;;8.37;100.00;99020.53;5086449;28;20054;-58
2023/12/26 07:42:13;;;;;;;0.20;0.20;;;;;;;8.29;100.00;99024.34;5098707;28;20162;-58
2023/12/26 07:44:40;;;;;;;0.20;0.20;;;;;;;8.31;100.00;99027.63;5087809;28;20040;-59
2023/12/26 07:47:08;;;;;;;0.20;0.20;;;;;;;8.34;100.00;99037.81;5071625;28;20040;-58
2023/12/26 07:49:35;;;;;;;0.28;0.28;;;;;;;8.27;100.00;99031.78;5088374;28;20040;-58
2023/12/26 07:52:03;;;;;;;0.30;0.30;;;;;;;8.39;100.00;99045.97;5094867;28;20038;-58
2023/12/26 07:54:32;;;;;;;0.40;0.40;;;;;;;8.33;100.00;99049.53;5090685;28;20113;-58
2023/12/26 07:56:59;;;;;;;0.20;0.20;;;;;;;8.35;100.00;99038.63;5099185;28;20067;-58
2023/12/26 07:59:26;;;;;;;0.20;0.20;;;;;;;8.23;100.00;99035.94;5092578;28;20439;-58
2023/12/26 08:01:54;;;;;;;0.30;0.30;;;;;;;8.15;100.00;99044.31;5091173;28;20133;-58
2023/12/26 08:04:21;;;;;;;0.30;0.30;;;;;;;8.22;100.00;99045.03;5079685;28;20132;-58
2023/12/26 08:06:49;;;;;;;0.30;0.30;;;;;;;8.29;100.00;99060.94;5091989;28;20056;-58
2023/12/26 08:09:18;;;;;;;0.30;0.30;;;;;;;8.33;100.00;99057.53;5071437;28;20501;-58
2023/12/26 08:11:45;;;;;;;0.30;0.30;;;;;;;8.25;100.00;99055.22;5089932;28;20209;-58
2023/12/26 08:14:17;;;;;;;0.30;0.30;;;;;;;8.23;100.00;99067.19;5086090;28;20139;-58
2023/12/26 08:16:44;;;;;;;0.28;0.28;;;;;;;8.29;100.00;99082.28;5081389;28;20069;-58
2023/12/26 08:19:11;;;;;;;0.30;0.30;;;;;;;8.26;100.00;99083.53;5094912;28;20100;-58
2023/12/26 08:21:38;;;;;;;0.30;0.30;;;;;;;8.20;100.00;99087.16;5097518;28;20040;-59
2023/12/26 08:24:07;;;;;;;0.30;0.30;;;;;;;8.17;100.00;99096.44;5098671;28;20064;-58
2023/12/26 08:26:35;;;;;;;0.38;0.38;;;;;;;8.17;100.00;99106.31;5096013;28;20138;-58
2023/12/26 08:29:02;;;;;;;0.30;0.30;;;;;;;8.23;100.00;99094.69;5087736;28;20127;-59
2023/12/26 08:31:29;;;;;;;0.22;0.22;;;;;;;8.16;100.00;99097.47;5096965;28;20051;-59
2023/12/26 08:33:57;;;;;;;0.30;0.30;;;;;;;8.16;100.00;99094.81;5071288;28;20047;-59
2023/12/26 08:36:25;;;;;;;0.30;0.30;;;;;;;8.19;100.00;99101.56;5097594;28;20039;-58
2023/12/26 08:38:52;;;;;;;0.20;0.20;;;;;;;8.31;100.00;99093.53;5086599;28;20523;-59
2023/12/26 08:41:19;;;;;;;0.20;0.20;;;;;;;8.40;100.00;99090.31;5092497;28;20629;-58
2023/12/26 08:43:48;;;;;;;0.32;0.32;;;;;;;8.48;100.00;99102.53;5090019;28;20526;-59
2023/12/26 08:46:15;;;;;;;0.30;0.30;;;;;;;8.50;100.00;99112.97;5090122;28;20288;-59
2023/12/26 08:48:43;;;;;;;0.30;0.30;;;;;;;8.63;100.00;99118.09;5091587;28;20051;-58
2023/12/26 08:51:10;;;;;;;0.40;0.40;;;;;;;8.89;100.00;99126.69;5098332;28;20490;-58
2023/12/26 08:53:37;;;;;;;0.30;0.30;;;;;;;9.05;100.00;99116.09;5085160;28;20144;-58
2023/12/26 08:56:04;;;;;;;0.30;0.30;;;;;;;9.23;100.00;99108.97;5090427;28;20044;-59
2023/12/26 08:58:32;;;;;;;0.30;0.30;;;;;;;9.14;100.00;99127.25;5087117;28;20040;-58
2023/12/26 09:01:01;;;;;;;0.15;0.15;;;;;;;9.26;100.00;99135.22;5090952;28;20041;-58
2023/12/26 09:03:28;;;;;;;0.20;0.20;;;;;;;9.28;100.00;99142.00;5084520;28;20603;-58
2023/12/26 09:05:55;;;;;;;0.28;0.28;;;;;;;9.26;100.00;99140.56;5093552;28;20130;-57
2023/12/26 09:08:22;;;;;;;0.25;0.25;;;;;;;9.22;100.00;99144.78;5084503;28;20127;-58
2023/12/26 09:10:49;;;;;;;0.30;0.30;;;;;;;9.24;100.00;99148.84;5095459;28;20056;-58
2023/12/26 09:13:20;;;;;;;0.20;0.20;;;;;;;9.24;100.00;99151.53;5092933;28;20059;-58
2023/12/26 09:15:48;;;;;;;0.30;0.30;;;;;;;9.12;100.00;99155.25;5090957;28;21614;-58
2023/12/26 09:18:17;;;;;;;0.30;0.30;;;;;;;9.31;100.00;99153.25;5090039;28;20223;-58
2023/12/26 09:20:44;;;;;;;0.20;0.20;;;;;;;9.39;100.00;99158.25;5088599;28;20102;-58
2023/12/26 09:23:12;;;;;;;0.22;0.22;;;;;;;9.37;100.00;99171.84;5092871;28;20047;-59
2023/12/26 09:25:39;;;;;;;0.20;0.20;;;;;;;9.37;100.00;99173.72;5093612;28;20043;-58
2023/12/26 09:28:09;;;;;;;0.20;0.20;;;;;;;9.45;100.00;99170.66;5090860;28;20050;-58
2023/12/26 09:30:37;;;;;;;0.20;0.20;;;;;;;9.24;100.00;99180.94;5090520;28;20073;-58
2023/12/26 09:33:05;;;;;;;0.20;0.20;;;;;;;9.04;100.00;99183.16;5089730;28;20122;-58
2023/12/26 09:35:33;;;;;;;0.30;0.30;;;;;;;9.05;100.00;99176.75;5076007;28;20052;-58
2023/12/26 09:38:00;;;;;;;0.20;0.20;;;;;;;9.04;100.00;99191.19;5091936;28;20039;-58
2023/12/26 09:40:27;;;;;;;0.20;0.20;;;;;;;8.91;100.00;99194.06;5096868;28;20040;-58
2023/12/26 09:42:55;;;;;;;0.20;0.20;;;;;;;8.79;100.00;99194.91;5093394;28;20056;-58
2023/12/26 09:45:23;;;;;;;0.30;0.30;;;;;;;8.83;100.00;99201.38;5089609;28;20126;-58
2023/12/26 09:47:50;;;;;;;0.30;0.30;;;;;;;8.96;100.00;99205.72;5070012;28;20101;-58
2023/12/26 09:50:17;;;;;;;0.20;0.20;;;;;;;8.97;100.00;99210.00;5090010;28;20062;-58
2023/12/26 09:52:49;;;;;;;0.30;0.30;;;;;;;8.96;100.00;99218.25;5091445;28;20047;-58
2023/12/26 09:55:16;;;;;;;0.20;0.20;;;;;;;9.06;100.00;99211.31;5092654;28;20314;-57
2023/12/26 09:57:43;;;;;;;0.28;0.28;;;;;;;9.16;100.00;99216.06;5087217;28;20050;-58
2023/12/26 10:00:11;;;;;;;0.20;0.20;;;;;;;9.27;100.00;99228.59;5095566;28;20077;-58
2023/12/26 10:02:42;;;;;;;0.30;0.30;;;;;;;9.51;100.00;99236.63;5071517;28;20133;-58
2023/12/26 10:05:09;;;;;;;0.30;0.30;;;;;;;10.06;100.00;99235.28;5084690;28;20147;-58
2023/12/26 10:07:36;;;;;;;0.30;0.30;;;;;;;9.93;100.00;99237.22;5074308;28;20652;-58
2023/12/26 10:10:05;;;;;;;0.20;0.20;;;;;;;10.02;100.00;99244.88;5092870;28;20078;-58
2023/12/26 10:12:34;;;;;;;0.20;0.20;;;;;;;10.02;100.00;99256.38;5094262;28;20601;-58
2023/12/26 10:15:02;;;;;;;0.25;0.25;;;;;;;10.13;100.00;99252.03;5096971;28;20047;-58
2023/12/26 10:17:31;;;;;;;0.20;0.20;;;;;;;9.96;100.00;99256.50;5090880;28;20513;-58
2023/12/26 10:19:58;;;;;;;0.20;0.20;;;;;;;9.99;100.00;99259.53;5088546;28;20043;-58
2023/12/26 10:22:25;;;;;;;0.30;0.30;;;;;;;10.00;99.46;99246.97;5088692;28;20039;-58
2023/12/26 10:24:52;;;;;;;0.20;0.20;;;;;;;10.09;99.45;99256.25;5084574;28;20546;-58
2023/12/26 10:27:20;;;;;;;0.20;0.20;;;;;;;10.06;97.21;99256.69;5087688;28;20044;-58
2023/12/26 10:29:51;;;;;;;0.25;0.25;;;;;;;10.04;95.58;99253.47;5092888;28;20056;-58
2023/12/26 10:32:18;;;;;;;0.20;0.20;;;;;;;10.14;93.91;99265.19;5088883;28;20134;-58
2023/12/26 10:34:45;;;;;;;0.25;0.25;;;;;;;10.10;93.49;99274.75;5089341;28;20039;-58
2023/12/26 10:37:12;;;;;;;0.20;0.20;;;;;;;10.30;91.89;99274.34;5072612;28;20047;-58
2023/12/26 10:39:40;;;;;;;0.20;0.20;;;;;;;10.13;93.18;99282.31;5081802;28;20044;-58
2023/12/26 10:42:08;;;;;;;0.28;0.28;;;;;;;9.94;94.83;99286.22;5093141;28;20180;-58
2023/12/26 10:44:36;;;;;;;0.17;0.17;;;;;;;9.80;94.74;99255.41;5093905;28;20501;-58
2023/12/26 10:47:04;;;;;;;0.20;0.20;;;;;;;9.83;94.03;99277.13;5094210;28;20048;-58
2023/12/26 10:49:31;;;;;;;0.20;0.20;;;;;;;10.03;94.57;99279.41;5100115;28;20101;-58
2023/12/26 10:51:58;;;;;;;0.20;0.20;;;;;;;10.13;92.96;99274.28;5080752;28;20053;-58
2023/12/26 10:54:25;;;;;;;0.20;0.20;;;;;;;10.17;91.32;99255.88;5089023;28;20043;-58
2023/12/26 10:56:52;;;;;;;0.30;0.30;;;;;;;10.49;91.57;99261.56;5090271;28;20143;-58
2023/12/26 10:59:20;;;;;;;0.25;0.25;;;;;;;10.43;91.04;99261.72;5080576;28;20043;-58
2023/12/26 11:01:47;;;;;;;0.30;0.30;;;;;;;11.20;86.36;99263.78;5089938;28;20782;-58
2023/12/26 11:04:13;;;;;;;0.10;0.10;;;;;;;11.14;87.59;99270.16;5097410;28;20051;-58
2023/12/26 11:06:40;;;;;;;0.10;0.10;;;;;;;11.14;87.04;99275.53;5094007;28;20052;-58
2023/12/26 11:09:06;;;;;;;0.20;0.20;;;;;;;10.79;87.84;99265.84;5094900;28;20748;-58
2023/12/26 11:11:32;;;;;;;0.20;0.20;;;;;;;10.49;86.61;99282.22;5096738;28;20518;-58
2023/12/26 11:14:01;;;;;;;0.20;0.20;;;;;;;10.53;87.97;99281.50;5099807;28;20039;-60
2023/12/26 11:16:27;;;;;;;0.20;0.20;;;;;;;10.15;89.71;99274.84;5090454;28;20580;-58
2023/12/26 11:18:55;;;;;;;0.20;0.20;;;;;;;10.00;89.79;99284.44;5092246;28;20047;-58
2023/12/26 11:21:22;;;;;;;0.10;0.10;;;;;;;9.84;89.87;99291.38;5098829;28;20580;-58
2023/12/26 11:23:48;;;;;;;0.20;0.20;;;;;;;9.94;87.69;99292.38;5095308;28;20731;-58
2023/12/26 11:26:14;;;;;;;0.20;0.20;;;;;;;9.77;88.38;99301.38;5091354;28;20066;-60
2023/12/26 11:28:40;;;;;;;0.20;0.20;;;;;;;9.87;88.87;99302.41;5093580;28;20043;-60
2023/12/26 11:31:06;;;;;;;0.20;0.20;;;;;;;9.86;87.68;99311.50;5090848;28;20047;-59
2023/12/26 11:33:32;;;;;;;0.20;0.20;;;;;;;9.89;87.83;99297.63;5089235;28;20692;-60
2023/12/26 11:36:01;;;;;;;0.15;0.15;;;;;;;9.97;85.79;99306.34;5092402;28;20090;-60